createdAt,value
2018-08-04T00:00:12.493Z,6.50
2018-08-04T00:02:50.415Z,5.90
2018-08-04T00:05:25.244Z,5.67
2018-08-04T00:07:59.443Z,5.73
2018-08-04T00:10:33.740Z,8.47
2018-08-04T00:13:08.208Z,6.37
2018-08-04T00:15:42.691Z,5.60
2018-08-04T00:18:16.970Z,6.83
2018-08-04T00:20:51.324Z,7.77
2018-08-04T00:23:25.660Z,8.67
2018-08-04T00:26:00.296Z,7.00
2018-08-04T00:28:34.732Z,7.23
2018-08-04T00:31:09.163Z,5.90
2018-08-04T00:33:43.372Z,7.67
2018-08-04T00:36:19.889Z,7.83
2018-08-04T00:39:06.745Z,9.67
2018-08-04T00:41:41.006Z,5.97
2018-08-04T00:44:28.475Z,8.00
2018-08-04T00:47:02.907Z,6.30
2018-08-04T00:49:37.347Z,7.77
2018-08-04T00:52:11.585Z,8.33
2018-08-04T00:54:46.175Z,5.90
2018-08-04T00:57:20.595Z,5.73
2018-08-04T00:59:54.987Z,7.20
2018-08-04T01:02:29.639Z,5.60
2018-08-04T01:05:04.071Z,5.07
2018-08-04T01:07:38.372Z,6.63
2018-08-04T01:10:12.796Z,6.27
2018-08-04T01:12:47.465Z,6.27
2018-08-04T01:15:21.928Z,4.83
2018-08-04T01:17:56.407Z,4.40
2018-08-04T01:20:30.840Z,7.40
2018-08-04T01:23:05.296Z,8.63
2018-08-04T01:25:39.796Z,9.03
2018-08-04T01:28:14.121Z,9.40
2018-08-04T01:30:48.376Z,6.50
2018-08-04T01:33:23.100Z,7.77
2018-08-04T01:35:57.388Z,4.97
2018-08-04T01:38:41.475Z,8.00
2018-08-04T01:44:19.912Z,6.20
2018-08-04T01:47:04.685Z,7.43
2018-08-04T01:49:39.292Z,5.23
2018-08-04T01:52:13.684Z,5.97
2018-08-04T01:58:01.755Z,6.67
2018-08-04T02:00:36.084Z,4.53
2018-08-04T02:03:20.343Z,4.57
2018-08-04T02:06:06.339Z,6.07
2018-08-04T02:08:40.609Z,6.03
2018-08-04T02:11:15.032Z,4.30
2018-08-04T02:13:49.384Z,5.67
2018-08-04T02:16:24.020Z,6.87
2018-08-04T02:18:58.231Z,6.50
2018-08-04T02:21:32.592Z,5.33
2018-08-04T02:24:07.023Z,8.33
2018-08-04T02:26:41.611Z,9.17
2018-08-04T02:29:15.827Z,6.30
2018-08-04T02:31:50.203Z,7.73
2018-08-04T02:34:24.668Z,6.30
2018-08-04T02:36:58.939Z,6.17
2018-08-04T02:39:33.246Z,7.40
2018-08-04T02:42:07.743Z,4.67
2018-08-04T02:44:42.167Z,7.40
2018-08-04T02:47:16.492Z,6.30
2018-08-04T02:49:50.946Z,5.20
2018-08-04T02:52:25.351Z,4.67
2018-08-04T02:54:59.631Z,7.93
2018-08-04T02:57:34.041Z,5.00
2018-08-04T03:00:08.452Z,5.13
2018-08-04T03:02:43.092Z,9.80
2018-08-04T03:05:17.465Z,5.27
2018-08-04T03:07:51.731Z,6.07
2018-08-04T03:10:26.053Z,7.07
2018-08-04T03:13:00.480Z,7.03
2018-08-04T03:15:34.905Z,4.50
2018-08-04T03:18:09.271Z,6.43
2018-08-04T03:20:43.623Z,5.40
2018-08-04T03:23:17.957Z,6.67
2018-08-04T03:25:52.367Z,7.70
2018-08-04T03:28:26.751Z,5.93
2018-08-04T03:31:01.051Z,7.27
2018-08-04T03:33:35.423Z,6.23
2018-08-04T03:36:09.683Z,5.97
2018-08-04T03:38:43.991Z,4.87
2018-08-04T03:41:18.389Z,5.27
2018-08-04T03:43:52.800Z,6.33
2018-08-04T03:46:27.183Z,6.07
2018-08-04T03:49:01.501Z,7.97
2018-08-04T03:51:35.911Z,5.83
2018-08-04T03:54:11.379Z,5.60
2018-08-04T03:57:02.286Z,4.83
2018-08-04T03:59:36.611Z,6.77
2018-08-04T04:02:11.292Z,7.10
2018-08-04T04:04:45.603Z,4.97
2018-08-04T04:07:19.879Z,6.27
2018-08-04T04:09:54.307Z,4.90
2018-08-04T04:12:28.640Z,5.07
2018-08-04T04:15:03.052Z,7.30
2018-08-04T04:17:43.620Z,5.63
2018-08-04T04:20:19.172Z,5.87
2018-08-04T04:22:53.543Z,5.27
2018-08-04T04:25:27.975Z,5.57
2018-08-04T04:28:02.289Z,7.50
2018-08-04T04:30:36.686Z,4.73
2018-08-04T04:33:11.095Z,4.07
2018-08-04T04:35:45.831Z,7.67
2018-08-04T04:38:20.131Z,7.13
2018-08-04T04:40:54.600Z,6.87
2018-08-04T04:43:28.861Z,7.03
2018-08-04T04:46:03.283Z,4.60
2018-08-04T04:48:37.644Z,5.17
2018-08-04T04:51:12.091Z,8.63
2018-08-04T04:53:46.435Z,4.97
2018-08-04T04:56:20.787Z,8.20
2018-08-04T04:58:55.092Z,3.67
2018-08-04T05:01:29.695Z,5.90
2018-08-04T05:04:04.215Z,4.50
2018-08-04T05:06:38.587Z,4.77
2018-08-04T05:09:13.175Z,4.70
2018-08-04T05:11:47.520Z,5.57
2018-08-04T05:14:32.564Z,5.73
2018-08-04T05:17:06.819Z,5.73
2018-08-04T05:19:41.261Z,4.10
2018-08-04T05:22:15.633Z,5.47
2018-08-04T05:24:50.048Z,4.87
2018-08-04T05:27:24.391Z,7.17
2018-08-04T05:29:58.808Z,7.23
2018-08-04T05:32:33.163Z,5.97
2018-08-04T05:35:07.480Z,3.57
2018-08-04T05:37:41.912Z,5.07
2018-08-04T05:40:16.331Z,5.17
2018-08-04T05:42:50.695Z,4.10
2018-08-04T05:45:24.950Z,3.80
2018-08-04T05:47:59.331Z,5.23
2018-08-04T05:50:33.779Z,5.87
2018-08-04T05:53:08.476Z,4.83
2018-08-04T05:55:42.985Z,5.77
2018-08-04T05:58:17.207Z,8.13
2018-08-04T06:00:51.615Z,6.23
2018-08-04T06:03:26.002Z,3.07
2018-08-04T06:06:00.379Z,4.00
2018-08-04T06:08:34.727Z,12.70
2018-08-04T06:11:09.171Z,4.23
2018-08-04T06:13:44.652Z,4.20
2018-08-04T06:16:25.656Z,4.80
2018-08-04T06:19:00.052Z,4.87
2018-08-04T06:21:34.589Z,5.70
2018-08-04T06:24:09.224Z,3.90
2018-08-04T06:26:43.822Z,5.57
2018-08-04T06:29:18.290Z,9.07
2018-08-04T06:31:52.854Z,3.93
2018-08-04T06:34:39.348Z,9.07
2018-08-04T06:37:13.861Z,8.23
2018-08-04T06:39:48.288Z,4.93
2018-08-04T06:42:22.805Z,4.23
2018-08-04T06:44:57.368Z,6.37
2018-08-04T06:47:32.104Z,5.73
2018-08-04T06:50:06.912Z,3.93
2018-08-04T06:52:41.342Z,5.17
2018-08-04T06:55:15.892Z,5.87
2018-08-04T06:57:50.319Z,4.47
2018-08-04T07:00:24.789Z,3.90
2018-08-04T07:02:59.429Z,4.87
2018-08-04T07:05:46.321Z,6.07
2018-08-04T07:08:24.363Z,3.33
2018-08-04T07:10:59.000Z,4.33
2018-08-04T07:13:33.363Z,4.17
2018-08-04T10:03:55.262Z,2.13
2018-08-04T10:06:29.624Z,1.83
2018-08-04T10:09:06.040Z,2.90
2018-08-04T10:11:40.373Z,2.80
2018-08-04T10:14:14.785Z,2.63
2018-08-04T10:16:49.391Z,1.47
2018-08-04T10:19:23.815Z,2.20
2018-08-04T10:21:58.259Z,2.27
2018-08-04T10:27:32.227Z,2.40
2018-08-04T10:30:09.107Z,2.75
2018-08-04T10:32:43.552Z,2.00
2018-08-04T10:35:17.831Z,1.57
2018-08-04T10:37:52.124Z,2.47
2018-08-04T10:40:26.559Z,3.05
2018-08-04T10:43:00.973Z,4.12
2018-08-04T10:45:35.467Z,1.77
2018-08-04T10:48:09.950Z,2.37
2018-08-04T10:50:44.384Z,1.80
2018-08-04T10:53:18.741Z,2.80
2018-08-04T10:55:53.021Z,1.80
2018-08-04T10:58:27.268Z,4.87
2018-08-04T11:01:01.729Z,2.33
2018-08-04T11:03:36.143Z,1.60
2018-08-04T11:06:10.452Z,3.30
2018-08-04T11:08:44.723Z,1.90
2018-08-04T11:11:19.184Z,3.02
2018-08-04T11:13:53.638Z,2.10
2018-08-04T11:16:27.947Z,5.15
2018-08-04T11:19:02.183Z,4.03
2018-08-04T11:21:36.614Z,2.83
2018-08-04T11:24:11.120Z,1.57
2018-08-04T11:26:45.395Z,3.25
2018-08-04T11:29:19.911Z,2.00
2018-08-04T11:31:54.228Z,3.72
2018-08-04T11:34:28.667Z,2.45
2018-08-04T11:37:03.043Z,3.12
2018-08-04T11:39:37.476Z,3.37
2018-08-04T11:42:11.860Z,2.07
2018-08-04T11:44:46.265Z,2.47
2018-08-04T11:47:20.547Z,2.50
2018-08-04T11:49:55.055Z,2.43
2018-08-04T11:52:29.340Z,2.07
2018-08-04T11:55:03.885Z,5.17
2018-08-04T11:57:38.283Z,2.30
2018-08-04T12:00:13.132Z,2.40
2018-08-04T12:02:47.731Z,2.03
2018-08-04T12:05:22.229Z,3.90
2018-08-04T12:07:56.430Z,3.03
2018-08-04T12:10:30.844Z,4.83
2018-08-04T12:13:05.190Z,2.70
2018-08-04T12:15:39.614Z,2.83
2018-08-04T12:18:13.932Z,4.27
2018-08-04T12:20:48.236Z,2.60
2018-08-04T12:23:22.561Z,2.83
2018-08-04T12:25:57.162Z,6.43
2018-08-04T12:28:31.519Z,4.40
2018-08-04T12:31:05.935Z,5.87
2018-08-04T12:33:40.329Z,3.90
2018-08-04T12:36:14.688Z,3.03
2018-08-04T12:38:49.032Z,2.23
2018-08-04T12:41:23.423Z,3.20
2018-08-04T12:43:57.752Z,3.47
2018-08-04T12:46:32.170Z,4.63
2018-08-04T12:49:06.992Z,5.30
2018-08-04T12:51:41.477Z,2.40
2018-08-04T12:54:15.907Z,5.37
2018-08-04T12:56:50.424Z,2.27
2018-08-04T12:59:24.990Z,2.03
2018-08-04T13:01:59.487Z,3.27
2018-08-04T13:04:34.076Z,3.13
2018-08-04T13:07:08.775Z,3.17
2018-08-04T13:09:43.290Z,4.57
2018-08-04T13:12:18.021Z,3.23
2018-08-04T13:14:52.539Z,5.40
2018-08-04T13:17:27.131Z,2.50
2018-08-04T13:20:01.636Z,3.53
2018-08-04T13:22:35.948Z,3.50
2018-08-04T13:25:10.347Z,3.97
2018-08-04T13:27:44.864Z,1.93
2018-08-04T13:30:19.523Z,4.17
2018-08-04T13:32:54.116Z,2.30
2018-08-04T13:35:28.523Z,3.07
2018-08-04T13:38:02.955Z,3.50
2018-08-04T13:40:37.324Z,1.90
2018-08-04T13:43:11.836Z,2.97
2018-08-04T13:45:53.302Z,4.33
2018-08-04T13:48:27.636Z,3.33
2018-08-04T13:51:02.387Z,3.43
2018-08-04T13:53:36.814Z,2.90
2018-08-04T13:56:11.172Z,2.87
2018-08-04T13:58:45.688Z,2.97
2018-08-04T14:01:20.135Z,2.67
2018-08-04T14:03:54.762Z,3.47
2018-08-04T14:06:29.966Z,1.70
2018-08-04T14:09:06.178Z,2.40
2018-08-04T14:11:40.640Z,2.03
2018-08-04T14:14:15.030Z,2.13
2018-08-04T14:16:49.444Z,2.07
2018-08-04T14:19:23.815Z,2.17
2018-08-04T14:21:58.457Z,2.40
2018-08-04T14:24:32.919Z,2.47
2018-08-04T14:27:07.536Z,4.03
2018-08-04T14:29:41.905Z,1.83
2018-08-04T14:32:16.530Z,2.50
2018-08-04T14:34:51.217Z,3.37
2018-08-04T14:37:25.529Z,2.80
2018-08-04T14:39:59.832Z,2.47
2018-08-04T14:42:34.247Z,1.60
2018-08-04T14:45:08.504Z,1.97
2018-08-04T14:47:42.899Z,3.40
2018-08-04T14:50:17.340Z,3.43
2018-08-04T14:52:51.583Z,4.50
2018-08-04T14:55:26.043Z,4.43
2018-08-04T14:58:00.528Z,2.67
2018-08-04T15:00:35.007Z,3.07
2018-08-04T15:03:09.639Z,2.77
2018-08-04T15:05:43.995Z,1.67
2018-08-04T15:08:18.303Z,2.53
2018-08-04T15:10:52.571Z,2.27
2018-08-04T15:13:26.967Z,2.00
2018-08-04T15:16:01.288Z,1.73
2018-08-04T15:18:35.697Z,2.00
2018-08-04T15:21:10.120Z,2.17
2018-08-04T15:23:44.547Z,2.70
2018-08-04T15:26:18.967Z,1.70
2018-08-04T15:28:53.435Z,1.67
2018-08-04T15:31:28.051Z,2.77
2018-08-04T15:37:01.488Z,1.37
2018-08-04T15:39:35.884Z,1.43
2018-08-04T15:42:10.195Z,4.40
2018-08-04T15:44:44.427Z,4.23
2018-08-04T15:47:18.783Z,2.57
2018-08-04T15:49:53.472Z,1.93
2018-08-04T15:52:27.895Z,3.57
2018-08-04T15:55:02.607Z,3.23
2018-08-04T15:57:37.036Z,3.73
2018-08-04T16:00:11.569Z,1.53
2018-08-04T16:02:46.043Z,2.07
2018-08-04T16:05:20.448Z,2.60
2018-08-04T16:07:54.831Z,5.53
2018-08-04T16:10:29.112Z,2.20
2018-08-04T16:13:03.575Z,4.07
2018-08-04T16:15:37.882Z,6.37
2018-08-04T16:18:12.611Z,1.80
2018-08-04T16:20:46.871Z,2.80
2018-08-04T16:23:21.376Z,2.27
2018-08-04T16:25:55.820Z,2.67
2018-08-04T16:28:30.244Z,2.53
2018-08-04T16:31:04.639Z,2.50
2018-08-04T16:33:39.075Z,1.87
2018-08-04T16:36:13.474Z,4.93
2018-08-04T16:38:48.075Z,3.47
2018-08-04T16:41:22.331Z,2.23
2018-08-04T16:43:56.687Z,6.00
2018-08-04T16:46:31.077Z,2.87
2018-08-04T16:49:05.439Z,1.70
2018-08-04T16:51:39.844Z,1.73
2018-08-04T16:57:32.225Z,2.20
2018-08-04T17:00:06.992Z,2.00
2018-08-04T17:02:41.298Z,3.70
2018-08-04T17:05:15.707Z,2.67
2018-08-04T17:07:50.183Z,2.30
2018-08-04T17:10:24.455Z,2.20
2018-08-04T17:12:58.912Z,2.17
2018-08-04T17:15:33.347Z,2.80
2018-08-04T17:18:08.181Z,3.23
2018-08-04T17:20:42.552Z,3.13
2018-08-04T17:23:16.912Z,1.87
2018-08-04T17:25:51.272Z,2.63
2018-08-04T17:28:25.769Z,2.50
2018-08-04T17:31:00.195Z,2.67
2018-08-04T17:33:34.606Z,3.77
2018-08-04T17:36:09.144Z,2.93
2018-08-04T17:38:43.872Z,4.23
2018-08-04T17:41:18.368Z,3.40
2018-08-04T17:43:52.801Z,4.23
2018-08-04T17:46:27.275Z,3.03
2018-08-04T17:49:01.723Z,2.30
2018-08-04T17:51:36.328Z,1.90
2018-08-04T17:54:10.695Z,2.73
2018-08-04T17:56:45.296Z,2.63
2018-08-04T17:59:19.957Z,2.90
2018-08-04T18:01:54.548Z,2.47
2018-08-04T18:04:29.164Z,4.53
2018-08-04T18:07:03.632Z,5.47
2018-08-04T18:09:38.199Z,2.80
2018-08-04T18:12:12.741Z,6.23
2018-08-04T18:14:47.202Z,5.90
2018-08-04T18:17:21.792Z,3.37
2018-08-04T18:19:56.185Z,2.70
2018-08-04T18:22:30.795Z,4.23
2018-08-04T18:25:05.189Z,5.10
2018-08-04T18:27:39.524Z,4.17
2018-08-04T18:30:13.940Z,4.73
2018-08-04T18:36:08.273Z,4.60
2018-08-04T18:38:42.860Z,2.60
2018-08-04T18:41:17.364Z,4.90
2018-08-04T18:43:51.832Z,7.27
2018-08-04T18:46:26.401Z,6.60
2018-08-04T18:49:00.898Z,9.10
2018-08-04T18:51:35.534Z,12.17
2018-08-04T18:54:10.245Z,10.10
2018-08-04T18:56:44.803Z,9.17
2018-08-04T18:59:19.280Z,6.20
2018-08-04T19:01:53.916Z,7.30
2018-08-04T19:04:28.372Z,3.97
2018-08-04T19:07:02.972Z,6.23
2018-08-04T19:09:37.505Z,7.80
2018-08-04T19:12:11.990Z,5.40
2018-08-04T19:14:46.315Z,4.17
2018-08-04T19:17:20.676Z,5.80
2018-08-04T19:19:55.133Z,4.10
2018-08-04T19:22:29.813Z,4.57
2018-08-04T19:25:04.421Z,4.07
2018-08-04T19:27:38.900Z,5.93
2018-08-04T19:30:13.349Z,4.30
2018-08-04T19:32:47.793Z,3.47
2018-08-04T19:35:22.361Z,3.67
2018-08-04T19:37:57.070Z,4.83
2018-08-04T19:40:31.526Z,5.10
2018-08-04T19:43:06.020Z,6.90
2018-08-04T19:45:40.608Z,3.93
2018-08-04T19:48:15.199Z,4.37
2018-08-04T19:50:49.668Z,4.93
2018-08-04T19:53:24.225Z,5.30
2018-08-04T19:55:58.863Z,5.13
2018-08-04T19:58:33.434Z,4.57
2018-08-04T20:01:08.132Z,6.73
2018-08-04T20:03:42.612Z,4.07
2018-08-04T20:06:17.262Z,4.03
2018-08-04T20:08:51.829Z,3.97
2018-08-04T20:11:26.524Z,7.37
2018-08-04T20:14:01.026Z,3.97
2018-08-04T20:16:35.526Z,7.57
2018-08-04T20:19:10.076Z,4.80
2018-08-04T20:21:44.660Z,4.27
2018-08-04T20:24:19.180Z,4.97
2018-08-04T20:26:53.788Z,3.80
2018-08-04T20:29:28.296Z,4.40
2018-08-04T20:32:02.665Z,3.70
2018-08-04T20:34:37.071Z,3.40
2018-08-04T20:37:11.473Z,5.83
2018-08-04T20:39:46.451Z,5.37
2018-08-04T20:42:21.700Z,5.23
2018-08-04T20:44:56.676Z,4.97
2018-08-04T20:47:31.116Z,3.77
2018-08-04T20:50:05.801Z,3.50
2018-08-04T20:52:40.304Z,4.03
2018-08-04T20:55:14.766Z,5.07
2018-08-04T20:57:49.318Z,5.67
2018-08-04T21:00:23.800Z,5.33
2018-08-04T21:02:58.464Z,4.97
2018-08-04T21:05:32.889Z,4.57
2018-08-04T21:08:07.761Z,4.20
2018-08-04T21:10:42.096Z,3.07
2018-08-04T21:13:16.445Z,4.07
2018-08-04T21:15:50.989Z,4.67
2018-08-04T21:18:25.564Z,4.17
2018-08-04T21:21:00.072Z,3.70
2018-08-04T21:23:35.021Z,5.17
2018-08-04T21:26:09.480Z,5.80
2018-08-04T21:28:44.141Z,4.27
2018-08-04T21:31:18.709Z,4.40
2018-08-04T21:33:53.431Z,5.03
2018-08-04T21:36:27.809Z,5.37
2018-08-04T21:39:02.468Z,3.20
2018-08-04T21:41:36.914Z,3.40
2018-08-04T21:47:24.104Z,5.73
2018-08-04T21:49:58.633Z,5.63
2018-08-04T21:52:33.154Z,7.27
2018-08-04T21:55:07.622Z,4.53
2018-08-04T21:57:42.224Z,5.53
2018-08-04T22:00:16.708Z,7.40
2018-08-04T22:03:02.824Z,7.03
2018-08-04T22:05:37.384Z,3.70
2018-08-04T22:08:23.093Z,7.03
2018-08-04T22:10:57.500Z,3.97
2018-08-04T22:13:32.016Z,7.00
2018-08-04T22:16:06.575Z,5.33
2018-08-04T22:18:41.528Z,6.87
2018-08-04T22:21:16.154Z,5.10
2018-08-04T22:23:50.638Z,3.60
2018-08-04T22:26:25.053Z,5.93
2018-08-04T22:28:59.835Z,6.80
2018-08-04T22:31:34.324Z,6.27
2018-08-04T22:34:09.047Z,5.50
2018-08-04T22:36:43.609Z,5.67
2018-08-04T22:39:18.145Z,4.73
2018-08-04T22:41:52.784Z,5.30
2018-08-04T22:44:32.388Z,4.33
2018-08-04T22:47:06.873Z,4.43
2018-08-04T22:49:41.536Z,6.37
2018-08-04T22:52:16.254Z,4.87
2018-08-04T22:54:50.857Z,4.17
2018-08-04T22:57:25.296Z,5.40
2018-08-04T22:59:59.940Z,5.17
2018-08-04T23:02:34.500Z,5.73
2018-08-04T23:05:08.908Z,5.47
2018-08-04T23:07:43.532Z,4.20
2018-08-04T23:10:17.941Z,7.30
2018-08-04T23:12:52.316Z,4.60
2018-08-04T23:15:27.916Z,6.20
2018-08-04T23:18:02.293Z,6.30
2018-08-04T23:20:37.088Z,6.23
2018-08-04T23:23:12.745Z,5.70
2018-08-04T23:25:47.256Z,5.60
2018-08-04T23:28:21.844Z,5.00
2018-08-04T23:30:56.560Z,4.77
2018-08-04T23:33:31.268Z,5.47
2018-08-04T23:36:05.709Z,6.00
2018-08-04T23:38:40.084Z,4.47
2018-08-04T23:41:14.564Z,4.13
2018-08-04T23:43:49.224Z,5.63
2018-08-04T23:46:23.628Z,4.93
2018-08-04T23:48:58.300Z,4.60
2018-08-04T23:51:32.953Z,5.23
2018-08-04T23:54:07.628Z,5.33
2018-08-04T23:56:42.124Z,5.80
2018-08-04T23:59:16.744Z,4.80
